sensor_id;sensor_type;location;lat;lon;timestamp;temperature;humidity
975;DHT22;6115;49.296;10.602;2023-02-28T00:01:53;-2.80;58.50
975;DHT22;6115;49.296;10.602;2023-02-28T00:06:53;-2.80;58.50
975;DHT22;6115;49.296;10.602;2023-02-28T00:11:54;-2.90;58.90
975;DHT22;6115;49.296;10.602;2023-02-28T00:16:54;-2.90;59.20
975;DHT22;6115;49.296;10.602;2023-02-28T00:21:55;-2.90;59.50
975;DHT22;6115;49.296;10.602;2023-02-28T00:26:55;-2.90;59.60
975;DHT22;6115;49.296;10.602;2023-02-28T00:31:56;-2.90;59.90
975;DHT22;6115;49.296;10.602;2023-02-28T00:36:56;-2.90;60.00
975;DHT22;6115;49.296;10.602;2023-02-28T00:41:57;-2.90;60.10
975;DHT22;6115;49.296;10.602;2023-02-28T00:46:58;-2.90;60.30
975;DHT22;6115;49.296;10.602;2023-02-28T00:51:59;-2.90;60.50
975;DHT22;6115;49.296;10.602;2023-02-28T00:57:00;-2.90;60.60
975;DHT22;6115;49.296;10.602;2023-02-28T01:02:00;-2.90;60.60
975;DHT22;6115;49.296;10.602;2023-02-28T01:07:01;-2.90;60.70
975;DHT22;6115;49.296;10.602;2023-02-28T01:12:02;-2.90;60.80
975;DHT22;6115;49.296;10.602;2023-02-28T01:17:02;-2.90;60.80
975;DHT22;6115;49.296;10.602;2023-02-28T01:22:04;-2.90;61.00
975;DHT22;6115;49.296;10.602;2023-02-28T01:27:05;-2.90;61.30
975;DHT22;6115;49.296;10.602;2023-02-28T01:32:05;-3.00;61.30
975;DHT22;6115;49.296;10.602;2023-02-28T01:37:06;-3.00;61.60
975;DHT22;6115;49.296;10.602;2023-02-28T01:42:09;-2.90;61.70
975;DHT22;6115;49.296;10.602;2023-02-28T01:47:09;-2.90;61.60
975;DHT22;6115;49.296;10.602;2023-02-28T01:52:11;-2.90;61.60
975;DHT22;6115;49.296;10.602;2023-02-28T01:57:21;-3.00;61.80
975;DHT22;6115;49.296;10.602;2023-02-28T02:02:23;-3.10;62.10
975;DHT22;6115;49.296;10.602;2023-02-28T02:07:26;-3.10;62.30
975;DHT22;6115;49.296;10.602;2023-02-28T02:12:50;-3.10;62.50
975;DHT22;6115;49.296;10.602;2023-02-28T02:17:56;-3.20;62.70
975;DHT22;6115;49.296;10.602;2023-02-28T02:49:28;-3.40;63.40
975;DHT22;6115;49.296;10.602;2023-02-28T02:54:34;-3.40;63.10
975;DHT22;6115;49.296;10.602;2023-02-28T02:59:38;-3.50;63.50
975;DHT22;6115;49.296;10.602;2023-02-28T03:04:43;-3.50;63.60
975;DHT22;6115;49.296;10.602;2023-02-28T03:09:53;-3.50;63.90
975;DHT22;6115;49.296;10.602;2023-02-28T03:15:29;-3.60;64.30
975;DHT22;6115;49.296;10.602;2023-02-28T03:20:29;-3.60;64.50
975;DHT22;6115;49.296;10.602;2023-02-28T03:25:46;-3.60;65.30
975;DHT22;6115;49.296;10.602;2023-02-28T03:31:09;-3.70;64.70
975;DHT22;6115;49.296;10.602;2023-02-28T03:36:17;-3.70;64.90
975;DHT22;6115;49.296;10.602;2023-02-28T03:41:22;-3.80;65.20
975;DHT22;6115;49.296;10.602;2023-02-28T03:46:25;-3.80;65.30
975;DHT22;6115;49.296;10.602;2023-02-28T03:51:28;-3.90;65.50
975;DHT22;6115;49.296;10.602;2023-02-28T03:56:39;-3.90;65.80
975;DHT22;6115;49.296;10.602;2023-02-28T04:01:46;-4.00;66.10
975;DHT22;6115;49.296;10.602;2023-02-28T04:06:50;-4.00;66.30
975;DHT22;6115;49.296;10.602;2023-02-28T04:11:52;-4.00;66.80
975;DHT22;6115;49.296;10.602;2023-02-28T04:16:53;-4.00;66.70
975;DHT22;6115;49.296;10.602;2023-02-28T04:21:53;-4.00;66.80
975;DHT22;6115;49.296;10.602;2023-02-28T04:26:56;-4.00;66.80
975;DHT22;6115;49.296;10.602;2023-02-28T04:31:57;-4.00;66.80
975;DHT22;6115;49.296;10.602;2023-02-28T04:37:01;-4.00;66.90
975;DHT22;6115;49.296;10.602;2023-02-28T04:42:03;-4.00;66.80
975;DHT22;6115;49.296;10.602;2023-02-28T04:47:04;-4.10;66.70
975;DHT22;6115;49.296;10.602;2023-02-28T04:52:05;-4.10;66.70
975;DHT22;6115;49.296;10.602;2023-02-28T04:57:07;-4.10;66.70
975;DHT22;6115;49.296;10.602;2023-02-28T05:02:08;-4.20;66.60
975;DHT22;6115;49.296;10.602;2023-02-28T05:07:08;-4.20;66.60
975;DHT22;6115;49.296;10.602;2023-02-28T05:12:10;-4.20;67.00
975;DHT22;6115;49.296;10.602;2023-02-28T05:17:10;-4.30;67.40
975;DHT22;6115;49.296;10.602;2023-02-28T05:22:15;-4.30;68.00
975;DHT22;6115;49.296;10.602;2023-02-28T05:27:19;-4.20;68.30
975;DHT22;6115;49.296;10.602;2023-02-28T05:32:19;-4.10;68.60
975;DHT22;6115;49.296;10.602;2023-02-28T05:37:20;-4.00;68.80
975;DHT22;6115;49.296;10.602;2023-02-28T05:42:21;-3.90;69.00
975;DHT22;6115;49.296;10.602;2023-02-28T05:47:21;-3.80;68.90
975;DHT22;6115;49.296;10.602;2023-02-28T05:52:22;-3.80;68.70
975;DHT22;6115;49.296;10.602;2023-02-28T05:57:23;-3.70;68.60
975;DHT22;6115;49.296;10.602;2023-02-28T06:02:24;-3.70;68.30
975;DHT22;6115;49.296;10.602;2023-02-28T06:07:25;-3.60;68.20
975;DHT22;6115;49.296;10.602;2023-02-28T06:12:25;-3.50;67.90
975;DHT22;6115;49.296;10.602;2023-02-28T06:17:26;-3.40;67.40
975;DHT22;6115;49.296;10.602;2023-02-28T06:22:26;-3.30;68.20
975;DHT22;6115;49.296;10.602;2023-02-28T06:27:27;-3.30;67.50
975;DHT22;6115;49.296;10.602;2023-02-28T06:32:27;-3.30;67.40
975;DHT22;6115;49.296;10.602;2023-02-28T06:37:30;-3.30;67.50
975;DHT22;6115;49.296;10.602;2023-02-28T06:42:30;-3.20;67.50
975;DHT22;6115;49.296;10.602;2023-02-28T06:47:31;-3.10;67.50
975;DHT22;6115;49.296;10.602;2023-02-28T06:52:32;-3.00;67.00
975;DHT22;6115;49.296;10.602;2023-02-28T06:57:34;-2.90;66.70
975;DHT22;6115;49.296;10.602;2023-02-28T07:02:36;-2.80;66.20
975;DHT22;6115;49.296;10.602;2023-02-28T07:07:37;-2.70;66.20
975;DHT22;6115;49.296;10.602;2023-02-28T07:12:40;-2.60;65.90
975;DHT22;6115;49.296;10.602;2023-02-28T07:17:41;-2.60;65.50
975;DHT22;6115;49.296;10.602;2023-02-28T07:22:42;-2.50;65.50
975;DHT22;6115;49.296;10.602;2023-02-28T07:27:42;-2.40;65.20
975;DHT22;6115;49.296;10.602;2023-02-28T07:32:43;-2.30;64.70
975;DHT22;6115;49.296;10.602;2023-02-28T07:37:43;-2.30;64.20
975;DHT22;6115;49.296;10.602;2023-02-28T07:42:44;-2.20;64.40
975;DHT22;6115;49.296;10.602;2023-02-28T07:47:45;-2.10;63.80
975;DHT22;6115;49.296;10.602;2023-02-28T07:52:46;-2.10;64.60
975;DHT22;6115;49.296;10.602;2023-02-28T07:57:46;-1.90;63.30
975;DHT22;6115;49.296;10.602;2023-02-28T08:02:47;-1.80;62.50
975;DHT22;6115;49.296;10.602;2023-02-28T08:07:49;-1.60;61.70
975;DHT22;6115;49.296;10.602;2023-02-28T08:12:49;-1.50;61.90
975;DHT22;6115;49.296;10.602;2023-02-28T08:17:50;-1.30;60.20
975;DHT22;6115;49.296;10.602;2023-02-28T08:22:53;-1.10;59.80
975;DHT22;6115;49.296;10.602;2023-02-28T08:27:54;-0.90;59.30
975;DHT22;6115;49.296;10.602;2023-02-28T08:32:55;-0.70;58.20
975;DHT22;6115;49.296;10.602;2023-02-28T08:37:55;-0.60;57.70
975;DHT22;6115;49.296;10.602;2023-02-28T08:42:56;-0.50;56.70
975;DHT22;6115;49.296;10.602;2023-02-28T08:47:56;-0.30;56.30
975;DHT22;6115;49.296;10.602;2023-02-28T08:52:57;-0.10;55.30
975;DHT22;6115;49.296;10.602;2023-02-28T08:57:58;0.10;54.90
975;DHT22;6115;49.296;10.602;2023-02-28T09:02:58;0.30;54.10
975;DHT22;6115;49.296;10.602;2023-02-28T09:07:59;0.60;53.70
975;DHT22;6115;49.296;10.602;2023-02-28T09:12:59;0.80;52.90
975;DHT22;6115;49.296;10.602;2023-02-28T09:18:00;1.00;53.00
975;DHT22;6115;49.296;10.602;2023-02-28T09:23:00;1.40;52.60
975;DHT22;6115;49.296;10.602;2023-02-28T09:28:01;2.10;51.50
975;DHT22;6115;49.296;10.602;2023-02-28T09:33:02;3.30;48.50
975;DHT22;6115;49.296;10.602;2023-02-28T09:38:04;3.70;46.40
975;DHT22;6115;49.296;10.602;2023-02-28T09:43:05;3.10;46.70
975;DHT22;6115;49.296;10.602;2023-02-28T09:48:21;3.10;46.90
975;DHT22;6115;49.296;10.602;2023-02-28T09:53:30;3.80;47.00
975;DHT22;6115;49.296;10.602;2023-02-28T09:58:44;5.30;44.20
975;DHT22;6115;49.296;10.602;2023-02-28T10:03:56;6.30;42.10
975;DHT22;6115;49.296;10.602;2023-02-28T10:09:21;6.60;41.40
975;DHT22;6115;49.296;10.602;2023-02-28T10:14:26;6.50;39.60
975;DHT22;6115;49.296;10.602;2023-02-28T10:19:38;6.90;39.70
975;DHT22;6115;49.296;10.602;2023-02-28T10:24:44;7.20;37.60
975;DHT22;6115;49.296;10.602;2023-02-28T10:30:05;6.90;37.00
975;DHT22;6115;49.296;10.602;2023-02-28T10:45:20;7.70;37.00
975;DHT22;6115;49.296;10.602;2023-02-28T10:55:27;8.20;36.30
975;DHT22;6115;49.296;10.602;2023-02-28T11:00:36;8.80;34.60
975;DHT22;6115;49.296;10.602;2023-02-28T11:05:36;8.10;34.10
975;DHT22;6115;49.296;10.602;2023-02-28T11:10:37;8.10;34.30
975;DHT22;6115;49.296;10.602;2023-02-28T11:15:38;6.80;35.10
975;DHT22;6115;49.296;10.602;2023-02-28T11:20:39;6.20;36.20
975;DHT22;6115;49.296;10.602;2023-02-28T11:25:50;6.80;37.00
975;DHT22;6115;49.296;10.602;2023-02-28T11:36:43;6.60;36.10
975;DHT22;6115;49.296;10.602;2023-02-28T11:58:07;9.10;32.30
975;DHT22;6115;49.296;10.602;2023-02-28T12:03:31;9.00;32.30
975;DHT22;6115;49.296;10.602;2023-02-28T12:35:11;9.50;31.40
975;DHT22;6115;49.296;10.602;2023-02-28T12:40:17;9.90;31.40
975;DHT22;6115;49.296;10.602;2023-02-28T12:45:24;9.70;30.90
975;DHT22;6115;49.296;10.602;2023-02-28T12:50:26;9.60;30.70
975;DHT22;6115;49.296;10.602;2023-02-28T13:00:42;9.20;31.20
975;DHT22;6115;49.296;10.602;2023-02-28T13:06:01;9.70;32.20
975;DHT22;6115;49.296;10.602;2023-02-28T13:11:03;9.20;30.60
975;DHT22;6115;49.296;10.602;2023-02-28T13:16:10;8.90;31.20
975;DHT22;6115;49.296;10.602;2023-02-28T13:21:28;9.10;31.20
975;DHT22;6115;49.296;10.602;2023-02-28T13:31:30;9.80;29.90
975;DHT22;6115;49.296;10.602;2023-02-28T13:36:33;9.30;30.00
975;DHT22;6115;49.296;10.602;2023-02-28T14:02:40;8.10;31.50
975;DHT22;6115;49.296;10.602;2023-02-28T14:07:48;8.10;32.40
975;DHT22;6115;49.296;10.602;2023-02-28T14:12:56;8.20;31.60
975;DHT22;6115;49.296;10.602;2023-02-28T14:18:00;8.60;31.90
975;DHT22;6115;49.296;10.602;2023-02-28T14:39:24;9.00;30.70
975;DHT22;6115;49.296;10.602;2023-02-28T14:44:27;8.30;31.70
975;DHT22;6115;49.296;10.602;2023-02-28T14:49:30;7.80;32.00
975;DHT22;6115;49.296;10.602;2023-02-28T14:54:31;7.60;32.60
975;DHT22;6115;49.296;10.602;2023-02-28T14:59:34;7.40;33.00
975;DHT22;6115;49.296;10.602;2023-02-28T15:04:35;7.40;33.20
975;DHT22;6115;49.296;10.602;2023-02-28T15:09:35;7.20;33.90
975;DHT22;6115;49.296;10.602;2023-02-28T15:14:37;6.90;33.80
975;DHT22;6115;49.296;10.602;2023-02-28T15:19:41;6.80;34.20
975;DHT22;6115;49.296;10.602;2023-02-28T15:24:48;6.70;34.80
975;DHT22;6115;49.296;10.602;2023-02-28T15:29:57;6.70;34.50
975;DHT22;6115;49.296;10.602;2023-02-28T15:35:37;6.90;35.20
975;DHT22;6115;49.296;10.602;2023-02-28T15:40:45;6.80;34.90
975;DHT22;6115;49.296;10.602;2023-02-28T15:46:02;6.40;35.20
975;DHT22;6115;49.296;10.602;2023-02-28T16:01:38;5.80;36.40
975;DHT22;6115;49.296;10.602;2023-02-28T16:12:00;5.50;37.10
975;DHT22;6115;49.296;10.602;2023-02-28T16:17:04;5.30;37.20
975;DHT22;6115;49.296;10.602;2023-02-28T16:22:05;5.10;38.50
975;DHT22;6115;49.296;10.602;2023-02-28T16:27:06;4.70;38.20
975;DHT22;6115;49.296;10.602;2023-02-28T16:32:07;4.50;39.20
975;DHT22;6115;49.296;10.602;2023-02-28T16:37:13;4.30;39.80
975;DHT22;6115;49.296;10.602;2023-02-28T16:42:26;4.10;40.20
975;DHT22;6115;49.296;10.602;2023-02-28T16:47:27;3.90;40.70
975;DHT22;6115;49.296;10.602;2023-02-28T16:52:27;3.60;41.30
975;DHT22;6115;49.296;10.602;2023-02-28T16:57:28;3.50;41.70
975;DHT22;6115;49.296;10.602;2023-02-28T17:02:29;3.30;41.60
975;DHT22;6115;49.296;10.602;2023-02-28T17:07:29;3.20;42.30
975;DHT22;6115;49.296;10.602;2023-02-28T17:12:30;3.00;42.60
975;DHT22;6115;49.296;10.602;2023-02-28T17:17:31;2.80;43.10
975;DHT22;6115;49.296;10.602;2023-02-28T17:22:32;2.70;43.50
975;DHT22;6115;49.296;10.602;2023-02-28T17:27:33;2.50;44.20
975;DHT22;6115;49.296;10.602;2023-02-28T17:32:33;2.30;44.60
975;DHT22;6115;49.296;10.602;2023-02-28T17:37:34;2.10;45.20
975;DHT22;6115;49.296;10.602;2023-02-28T17:42:34;2.00;45.00
975;DHT22;6115;49.296;10.602;2023-02-28T17:47:35;1.80;45.70
975;DHT22;6115;49.296;10.602;2023-02-28T17:52:36;1.70;46.40
975;DHT22;6115;49.296;10.602;2023-02-28T17:57:37;1.50;46.70
975;DHT22;6115;49.296;10.602;2023-02-28T18:02:37;1.40;47.10
975;DHT22;6115;49.296;10.602;2023-02-28T18:07:39;1.30;47.60
975;DHT22;6115;49.296;10.602;2023-02-28T18:12:40;1.20;48.10
975;DHT22;6115;49.296;10.602;2023-02-28T18:17:41;1.10;48.40
975;DHT22;6115;49.296;10.602;2023-02-28T18:22:42;1.00;48.70
975;DHT22;6115;49.296;10.602;2023-02-28T18:27:44;0.90;48.60
975;DHT22;6115;49.296;10.602;2023-02-28T18:32:53;0.80;48.90
975;DHT22;6115;49.296;10.602;2023-02-28T18:37:53;0.70;49.50
975;DHT22;6115;49.296;10.602;2023-02-28T18:42:54;0.60;50.10
975;DHT22;6115;49.296;10.602;2023-02-28T18:47:55;0.50;50.40
975;DHT22;6115;49.296;10.602;2023-02-28T18:52:55;0.40;50.80
975;DHT22;6115;49.296;10.602;2023-02-28T18:57:58;0.40;50.90
975;DHT22;6115;49.296;10.602;2023-02-28T19:02:59;0.30;51.10
975;DHT22;6115;49.296;10.602;2023-02-28T19:08:02;0.20;51.50
975;DHT22;6115;49.296;10.602;2023-02-28T19:13:04;0.20;51.90
975;DHT22;6115;49.296;10.602;2023-02-28T19:18:05;0.10;52.30
975;DHT22;6115;49.296;10.602;2023-02-28T19:23:06;0.00;52.20
975;DHT22;6115;49.296;10.602;2023-02-28T19:28:06;-0.10;52.30
975;DHT22;6115;49.296;10.602;2023-02-28T19:33:07;-0.10;52.80
975;DHT22;6115;49.296;10.602;2023-02-28T19:38:08;-0.20;53.20
975;DHT22;6115;49.296;10.602;2023-02-28T19:43:09;-0.20;53.30
975;DHT22;6115;49.296;10.602;2023-02-28T19:48:10;-0.30;53.30
975;DHT22;6115;49.296;10.602;2023-02-28T19:53:10;-0.30;53.50
975;DHT22;6115;49.296;10.602;2023-02-28T19:58:11;-0.30;53.60
975;DHT22;6115;49.296;10.602;2023-02-28T20:03:11;-0.30;53.80
975;DHT22;6115;49.296;10.602;2023-02-28T20:08:13;-0.40;54.10
975;DHT22;6115;49.296;10.602;2023-02-28T20:13:14;-0.40;54.20
975;DHT22;6115;49.296;10.602;2023-02-28T20:18:14;-0.50;54.60
975;DHT22;6115;49.296;10.602;2023-02-28T20:23:15;-0.50;54.70
975;DHT22;6115;49.296;10.602;2023-02-28T20:28:17;-0.60;54.90
975;DHT22;6115;49.296;10.602;2023-02-28T20:33:18;-0.60;55.00
975;DHT22;6115;49.296;10.602;2023-02-28T20:38:19;-0.60;55.00
975;DHT22;6115;49.296;10.602;2023-02-28T20:43:19;-0.60;55.20
975;DHT22;6115;49.296;10.602;2023-02-28T20:48:21;-0.70;55.30
975;DHT22;6115;49.296;10.602;2023-02-28T20:53:23;-0.70;55.40
975;DHT22;6115;49.296;10.602;2023-02-28T20:58:25;-0.70;55.50
975;DHT22;6115;49.296;10.602;2023-02-28T21:03:26;-0.80;55.70
975;DHT22;6115;49.296;10.602;2023-02-28T21:08:27;-0.80;55.90
975;DHT22;6115;49.296;10.602;2023-02-28T21:13:27;-0.80;55.90
975;DHT22;6115;49.296;10.602;2023-02-28T21:18:28;-0.80;55.90
975;DHT22;6115;49.296;10.602;2023-02-28T21:23:29;-0.80;55.90
975;DHT22;6115;49.296;10.602;2023-02-28T21:28:30;-0.80;56.50
975;DHT22;6115;49.296;10.602;2023-02-28T21:33:31;-0.90;55.80
975;DHT22;6115;49.296;10.602;2023-02-28T21:38:32;-0.90;55.80
975;DHT22;6115;49.296;10.602;2023-02-28T21:43:33;-1.00;55.70
975;DHT22;6115;49.296;10.602;2023-02-28T21:48:35;-1.00;55.70
975;DHT22;6115;49.296;10.602;2023-02-28T21:53:36;-1.00;56.10
975;DHT22;6115;49.296;10.602;2023-02-28T21:58:37;-1.10;56.30
975;DHT22;6115;49.296;10.602;2023-02-28T22:03:38;-1.10;56.60
975;DHT22;6115;49.296;10.602;2023-02-28T22:08:40;-1.10;56.70
975;DHT22;6115;49.296;10.602;2023-02-28T22:13:41;-1.20;56.60
975;DHT22;6115;49.296;10.602;2023-02-28T22:18:41;-1.20;56.70
975;DHT22;6115;49.296;10.602;2023-02-28T22:23:43;-1.20;56.80
975;DHT22;6115;49.296;10.602;2023-02-28T22:28:44;-1.20;56.90
975;DHT22;6115;49.296;10.602;2023-02-28T22:33:45;-1.20;57.00
975;DHT22;6115;49.296;10.602;2023-02-28T22:38:47;-1.30;56.90
975;DHT22;6115;49.296;10.602;2023-02-28T22:43:55;-1.30;57.20
975;DHT22;6115;49.296;10.602;2023-02-28T22:49:00;-1.40;57.40
975;DHT22;6115;49.296;10.602;2023-02-28T22:54:02;-1.40;57.40
975;DHT22;6115;49.296;10.602;2023-02-28T22:59:03;-1.40;57.60
975;DHT22;6115;49.296;10.602;2023-02-28T23:04:04;-1.50;57.70
975;DHT22;6115;49.296;10.602;2023-02-28T23:09:08;-1.50;58.00
975;DHT22;6115;49.296;10.602;2023-02-28T23:14:10;-1.60;58.20
975;DHT22;6115;49.296;10.602;2023-02-28T23:19:18;-1.70;58.30
975;DHT22;6115;49.296;10.602;2023-02-28T23:24:21;-1.70;58.60
975;DHT22;6115;49.296;10.602;2023-02-28T23:29:25;-1.70;58.70
975;DHT22;6115;49.296;10.602;2023-02-28T23:34:27;-1.80;59.20
975;DHT22;6115;49.296;10.602;2023-02-28T23:39:31;-1.80;59.30
975;DHT22;6115;49.296;10.602;2023-02-28T23:44:31;-1.80;59.30
975;DHT22;6115;49.296;10.602;2023-02-28T23:49:32;-1.90;59.20
975;DHT22;6115;49.296;10.602;2023-02-28T23:54:33;-1.90;59.30
975;DHT22;6115;49.296;10.602;2023-02-28T23:59:34;-1.90;59.50
